Aviation Digital Data Service (ADDS)

Output produced by METARs form (2139 UTC 22 October 2014)
found at http://aviationweather.gov/adds/metars/
 
KACK 221731Z 2218/2318 04015G30KT 2SM -SHRA OVC005 
     FM222200 04014G22KT 3SM +RA BR OVC003 
     FM231000 08010KT 3SM -SHRA OVC003 
     FM231200 09009KT 3SM -SHRA OVC008